In Rescue
 
Open Full Screen Window  High Contrast Mode
April 02, 2020 11:56 PM EDT
Weather Information
Wind Direction
  ---
Wind Speed
  00 kt (0 mph)
Wind Gust
  00 kt (0 mph)
Altimeter
30.14 in
Visibility
10 SM
Temperature
-01° C
30° F
Dewpoint
-03° C
27° F
Humidity
86%
Sky Condition
Clear
VFR

METAR KACB 030356Z AUTO 00000KT 10SM CLR M01/M03 A3014 RMK AO2 T10081028

FAA Disclaimer: The data displayed is for advisory purposes only and is not to be used for flight planning or operations.